Time;durP1;ratioP1;P1;durP2;ratioP2;P2;SDS_P1;SDS_P2;PMS_P1;PMS_P2;Temp;Humidity;BMP_temperature;BMP_pressure;BME280_temperature;BME280_humidity;BME280_pressure;Samples;Min_cycle;Max_cycle;Signal;HPM_P1;HPM_P2
2022/10/17 00:00:04;;;;;;;9.10;5.93;;;18.00;99.90;;;;;;5076135;28;20327;-87
2022/10/17 00:03:01;;;;;;;9.53;5.50;;;18.10;99.90;;;;;;5081683;28;20216;-86
2022/10/17 00:08:49;;;;;;;7.53;5.40;;;18.20;99.90;;;;;;5083225;28;20180;-90
2022/10/17 00:11:21;;;;;;;7.27;5.47;;;18.20;99.90;;;;;;5082381;28;20185;-91
2022/10/17 00:13:53;;;;;;;8.80;5.40;;;18.10;99.90;;;;;;5063145;28;20163;-89
2022/10/17 00:16:32;;;;;;;8.77;5.43;;;18.00;99.90;;;;;;5080973;28;20186;-89
2022/10/17 00:18:59;;;;;;;7.07;5.03;;;18.00;99.90;;;;;;5085236;28;20267;-89
2022/10/17 00:21:25;;;;;;;6.50;5.50;;;18.00;99.90;;;;;;5068132;28;20211;-87
2022/10/17 00:23:51;;;;;;;9.00;5.67;;;18.00;99.90;;;;;;5057210;28;20185;-88
2022/10/17 00:26:20;;;;;;;6.93;5.23;;;18.10;99.90;;;;;;5096611;28;20171;-89
2022/10/17 00:28:47;;;;;;;6.03;5.20;;;17.90;99.90;;;;;;5078719;28;20699;-88
2022/10/17 00:31:13;;;;;;;9.77;5.50;;;18.00;99.90;;;;;;5097530;28;20274;-88
2022/10/17 00:33:39;;;;;;;8.60;5.37;;;17.90;99.90;;;;;;5078833;28;20184;-89
2022/10/17 00:36:14;;;;;;;7.07;5.30;;;17.80;99.90;;;;;;5082374;28;20173;-88
2022/10/17 00:38:43;;;;;;;7.57;5.70;;;17.80;99.90;;;;;;5082145;28;20174;-89
2022/10/17 00:41:13;;;;;;;8.53;5.63;;;17.80;99.90;;;;;;5083660;28;20201;-90
2022/10/17 00:43:55;;;;;;;8.13;5.13;;;17.70;99.90;;;;;;5084071;28;20182;-91
2022/10/17 00:46:27;;;;;;;9.23;5.50;;;17.70;99.90;;;;;;5063991;28;20255;-86
2022/10/17 00:48:55;;;;;;;9.77;5.80;;;17.60;99.90;;;;;;5079802;28;20215;-87
2022/10/17 00:51:36;;;;;;;6.97;5.40;;;17.60;99.90;;;;;;5059234;28;20168;-83
2022/10/17 00:54:08;;;;;;;7.60;5.90;;;17.70;99.90;;;;;;5086586;28;20619;-90
2022/10/17 00:56:34;;;;;;;8.60;5.67;;;17.70;99.90;;;;;;5066577;28;20273;-89
2022/10/17 00:59:00;;;;;;;8.00;6.03;;;17.70;99.90;;;;;;5082302;28;20177;-85
2022/10/17 01:01:26;;;;;;;7.40;5.47;;;17.70;99.90;;;;;;5059610;28;20197;-89
2022/10/17 01:03:52;;;;;;;9.83;6.30;;;17.70;99.90;;;;;;5063042;28;20188;-87
2022/10/17 01:06:18;;;;;;;7.37;5.90;;;17.70;99.90;;;;;;5080380;28;20168;-89
2022/10/17 01:08:45;;;;;;;10.00;5.87;;;17.70;99.90;;;;;;5044226;28;20182;-87
2022/10/17 01:11:23;;;;;;;8.40;5.77;;;17.70;99.90;;;;;;5059138;28;20278;-87
2022/10/17 01:14:19;;;;;;;8.53;6.10;;;17.70;99.90;;;;;;5059513;28;20175;-87
2022/10/17 01:16:53;;;;;;;9.37;6.13;;;17.70;99.90;;;;;;5051473;28;20552;-89
2022/10/17 01:19:33;;;;;;;9.57;5.80;;;17.60;99.90;;;;;;5077142;28;20247;-90
2022/10/17 01:22:12;;;;;;;10.33;6.03;;;17.60;99.90;;;;;;5059150;28;20778;-86
2022/10/17 01:24:46;;;;;;;7.93;6.37;;;17.70;99.90;;;;;;5077338;28;20164;-88
2022/10/17 01:27:33;;;;;;;9.27;6.40;;;17.70;99.90;;;;;;5059906;28;20671;-88
2022/10/17 01:30:28;;;;;;;8.90;5.80;;;17.70;99.90;;;;;;5076881;28;20224;-89
2022/10/17 01:33:18;;;;;;;9.13;6.60;;;17.70;99.90;;;;;;5059536;28;20636;-87
2022/10/17 01:36:09;;;;;;;10.73;6.10;;;17.70;99.90;;;;;;5009613;28;20286;-88
2022/10/17 01:38:46;;;;;;;9.43;5.97;;;17.70;99.90;;;;;;5077508;28;20714;-89
2022/10/17 01:41:30;;;;;;;8.70;5.97;;;17.70;99.90;;;;;;5066515;28;20222;-88
2022/10/17 01:44:55;;;;;;;8.63;6.20;;;17.70;99.90;;;;;;5064481;28;20253;-84
2022/10/17 01:47:25;;;;;;;10.10;6.30;;;17.70;99.90;;;;;;4979211;28;20288;-86
2022/10/17 01:49:54;;;;;;;8.77;6.13;;;17.70;99.90;;;;;;4993531;28;20280;-87
2022/10/17 01:52:37;;;;;;;9.53;6.00;;;17.80;99.90;;;;;;5037215;28;20185;-88
2022/10/17 01:55:34;;;;;;;8.17;6.40;;;17.80;99.90;;;;;;5088809;28;20193;-88
2022/10/17 01:58:14;;;;;;;10.20;5.90;;;17.90;99.90;;;;;;5069331;28;20182;-89
2022/10/17 02:00:42;;;;;;;13.97;6.30;;;17.90;99.90;;;;;;5066918;28;20168;-88
2022/10/17 02:03:16;;;;;;;8.40;6.00;;;17.90;99.90;;;;;;5060336;28;20216;-88
2022/10/17 02:05:45;;;;;;;8.00;5.60;;;17.90;99.90;;;;;;5027773;28;20169;-89
2022/10/17 02:08:12;;;;;;;9.50;5.83;;;17.90;99.90;;;;;;5077718;28;20244;-89
2022/10/17 02:10:38;;;;;;;9.90;5.57;;;18.10;99.90;;;;;;5068292;28;20199;-89
2022/10/17 02:13:08;;;;;;;9.80;5.70;;;18.00;99.90;;;;;;5079761;28;20165;-89
2022/10/17 02:15:46;;;;;;;9.07;5.20;;;18.00;99.90;;;;;;5077614;28;20168;-88
2022/10/17 02:18:45;;;;;;;8.43;5.10;;;18.10;99.90;;;;;;5059888;28;20628;-89
2022/10/17 02:21:28;;;;;;;6.93;5.40;;;18.20;99.90;;;;;;5059587;28;20199;-89
2022/10/17 02:24:29;;;;;;;5.20;4.70;;;18.20;99.90;;;;;;5059019;28;20172;-89
2022/10/17 02:27:13;;;;;;;10.00;4.87;;;18.20;99.90;;;;;;5062628;28;20594;-89
2022/10/17 02:29:48;;;;;;;7.47;5.00;;;18.30;99.90;;;;;;5066181;28;20176;-86
2022/10/17 02:32:22;;;;;;;6.70;4.57;;;18.30;99.90;;;;;;5080434;28;20170;-90
2022/10/17 02:34:54;;;;;;;7.37;4.83;;;18.30;99.90;;;;;;5079742;28;20173;-88
2022/10/17 02:37:25;;;;;;;6.77;5.20;;;18.40;99.90;;;;;;5082483;28;20181;-86
2022/10/17 02:39:53;;;;;;;8.40;4.90;;;18.40;99.90;;;;;;5088323;28;20176;-87
2022/10/17 02:42:21;;;;;;;10.00;5.53;;;18.40;99.90;;;;;;5080791;28;20212;-86
2022/10/17 02:44:48;;;;;;;9.07;4.97;;;18.50;99.90;;;;;;5081486;28;20161;-86
2022/10/17 02:47:36;;;;;;;6.67;4.57;;;18.40;99.90;;;;;;5098635;28;20157;-85
2022/10/17 02:50:03;;;;;;;7.33;5.10;;;18.40;99.90;;;;;;5098821;28;20157;-87
2022/10/17 02:53:06;;;;;;;8.00;5.10;;;18.40;99.90;;;;;;5098999;28;20165;-85
2022/10/17 02:55:57;;;;;;;8.87;5.20;;;18.40;99.90;;;;;;5080613;28;20155;-87
2022/10/17 02:58:29;;;;;;;8.80;5.27;;;18.40;99.90;;;;;;5072933;28;20173;-90
2022/10/17 03:00:59;;;;;;;8.27;5.57;;;18.40;99.90;;;;;;5086507;28;20213;-87
2022/10/17 03:03:26;;;;;;;6.87;4.97;;;18.50;99.90;;;;;;5080638;28;20168;-87
2022/10/17 03:05:55;;;;;;;7.30;5.13;;;18.40;99.90;;;;;;5060786;28;20187;-88
2022/10/17 03:08:22;;;;;;;8.03;4.50;;;18.40;99.90;;;;;;5061412;28;20264;-88
2022/10/17 03:10:48;;;;;;;6.87;4.97;;;18.40;99.90;;;;;;5075422;28;20193;-85
2022/10/17 03:13:16;;;;;;;5.87;4.50;;;18.40;99.90;;;;;;5081631;28;20189;-84
2022/10/17 03:15:43;;;;;;;7.77;4.83;;;18.40;99.90;;;;;;5081228;28;20170;-85
2022/10/17 03:18:09;;;;;;;9.07;5.07;;;18.50;99.90;;;;;;5082175;28;20229;-85
2022/10/17 03:20:53;;;;;;;7.03;5.00;;;18.40;99.90;;;;;;5082881;28;20184;-87
2022/10/17 03:23:56;;;;;;;7.10;5.10;;;18.40;99.90;;;;;;5093281;28;20164;-88
2022/10/17 03:26:26;;;;;;;7.77;4.87;;;18.50;99.90;;;;;;5067930;28;20181;-89
2022/10/17 03:28:51;;;;;;;7.50;5.00;;;18.50;99.90;;;;;;5073837;28;20178;-87
2022/10/17 03:31:17;;;;;;;8.07;5.30;;;18.50;99.90;;;;;;5083192;28;20300;-88
2022/10/17 03:33:43;;;;;;;9.17;5.30;;;18.50;99.90;;;;;;5063701;28;20187;-89
2022/10/17 03:36:11;;;;;;;6.63;5.00;;;18.50;99.90;;;;;;5062738;28;20191;-87
2022/10/17 03:38:37;;;;;;;8.93;5.43;;;18.50;99.90;;;;;;5080028;28;20626;-88
2022/10/17 03:41:04;;;;;;;9.37;4.97;;;18.50;99.90;;;;;;5080182;28;20249;-86
2022/10/17 03:43:32;;;;;;;7.87;5.27;;;18.50;99.90;;;;;;5062046;28;20173;-88
2022/10/17 03:45:59;;;;;;;11.03;5.67;;;18.40;99.90;;;;;;5079782;28;20166;-88
2022/10/17 03:48:26;;;;;;;8.07;5.33;;;18.40;99.90;;;;;;5080449;28;20185;-88
2022/10/17 03:51:07;;;;;;;9.77;4.67;;;18.40;99.90;;;;;;5065945;28;20168;-88
2022/10/17 03:53:34;;;;;;;6.77;4.80;;;18.40;99.90;;;;;;5084506;28;20633;-89
2022/10/17 03:56:21;;;;;;;10.90;5.10;;;18.40;99.90;;;;;;5080118;28;20173;-88
2022/10/17 03:58:47;;;;;;;7.53;4.87;;;18.40;99.90;;;;;;5078641;28;20177;-82
2022/10/17 04:01:15;;;;;;;7.43;5.07;;;18.40;99.90;;;;;;5076830;28;20209;-82
2022/10/17 04:03:42;;;;;;;6.97;5.70;;;18.40;99.90;;;;;;5077534;28;20536;-81
2022/10/17 04:06:11;;;;;;;7.17;5.13;;;18.40;99.90;;;;;;5059324;28;20219;-83
2022/10/17 04:08:37;;;;;;;8.97;5.07;;;18.50;99.90;;;;;;5077158;28;20214;-83
2022/10/17 04:11:06;;;;;;;5.70;4.90;;;18.40;99.90;;;;;;5076768;28;20189;-81
2022/10/17 04:13:32;;;;;;;8.37;4.93;;;18.40;99.90;;;;;;5077354;28;20165;-81
2022/10/17 04:16:03;;;;;;;7.67;5.20;;;18.40;99.90;;;;;;5077952;28;20215;-84
2022/10/17 04:18:30;;;;;;;6.17;4.83;;;18.40;99.90;;;;;;5080402;28;20191;-89
2022/10/17 04:20:59;;;;;;;8.57;5.53;;;18.40;99.90;;;;;;5069234;28;20178;-89
2022/10/17 04:23:26;;;;;;;8.07;5.17;;;18.50;99.90;;;;;;5090431;28;20233;-81
2022/10/17 04:25:56;;;;;;;6.83;4.67;;;18.50;99.90;;;;;;5063633;28;20167;-86
2022/10/17 04:28:22;;;;;;;6.60;4.60;;;18.40;99.90;;;;;;5080156;28;20171;-81
2022/10/17 04:31:12;;;;;;;8.33;4.60;;;18.40;99.90;;;;;;5059216;28;20159;-84
2022/10/17 04:33:39;;;;;;;9.27;5.67;;;18.40;99.90;;;;;;5059905;28;20588;-83
2022/10/17 04:36:09;;;;;;;8.13;4.83;;;18.40;99.90;;;;;;5059679;28;20219;-83
2022/10/17 04:38:35;;;;;;;6.53;5.00;;;18.30;99.90;;;;;;5078014;28;20172;-83
2022/10/17 04:41:05;;;;;;;8.83;5.20;;;18.40;99.90;;;;;;5064331;28;20180;-84
2022/10/17 04:43:33;;;;;;;8.90;5.10;;;18.30;99.90;;;;;;5063262;28;20661;-85
2022/10/17 04:46:00;;;;;;;7.70;4.90;;;18.30;99.90;;;;;;5062552;28;20193;-87
2022/10/17 04:48:27;;;;;;;7.47;4.87;;;18.30;99.90;;;;;;5079738;28;20205;-82
2022/10/17 04:51:03;;;;;;;6.93;4.97;;;18.30;99.90;;;;;;5064288;28;20224;-83
2022/10/17 04:53:36;;;;;;;5.60;4.97;;;18.30;99.90;;;;;;5062975;28;20209;-81
2022/10/17 04:56:15;;;;;;;6.83;5.07;;;18.20;99.90;;;;;;5057619;28;20628;-82
2022/10/17 04:58:42;;;;;;;6.60;4.73;;;18.20;99.90;;;;;;5058790;28;20169;-81
2022/10/17 05:01:13;;;;;;;7.73;5.20;;;18.20;99.90;;;;;;5077879;28;20273;-85
2022/10/17 05:03:39;;;;;;;11.03;5.53;;;18.30;99.90;;;;;;5062904;28;20208;-84
2022/10/17 05:06:11;;;;;;;7.50;4.63;;;18.30;99.90;;;;;;5087066;28;20613;-83
2022/10/17 05:08:36;;;;;;;7.10;4.83;;;18.20;99.90;;;;;;5080447;28;20205;-87
2022/10/17 05:11:04;;;;;;;7.53;5.10;;;18.20;99.90;;;;;;5063354;28;20183;-82
2022/10/17 05:13:30;;;;;;;7.23;4.70;;;18.20;99.90;;;;;;5077270;28;20635;-81
2022/10/17 05:16:00;;;;;;;9.57;5.70;;;18.20;99.90;;;;;;5076567;28;20174;-82
2022/10/17 05:18:27;;;;;;;5.93;5.33;;;18.10;99.90;;;;;;5058380;28;20712;-81
2022/10/17 05:20:53;;;;;;;8.55;5.30;;;18.30;99.90;;;;;;5076226;28;20166;-81
2022/10/17 05:23:19;;;;;;;7.20;5.07;;;18.30;99.90;;;;;;5076473;28;20383;-81
2022/10/17 05:25:45;;;;;;;7.53;5.40;;;18.30;99.90;;;;;;5058695;28;20188;-90
2022/10/17 05:28:11;;;;;;;6.40;5.80;;;18.40;99.90;;;;;;5058703;28;20165;-85
2022/10/17 05:30:38;;;;;;;9.20;5.57;;;18.40;99.90;;;;;;5059393;28;20220;-90
2022/10/17 05:33:03;;;;;;;8.47;5.73;;;18.30;99.90;;;;;;5060246;28;20217;-86
2022/10/17 05:35:30;;;;;;;7.17;5.20;;;18.30;99.90;;;;;;5059512;28;20210;-91
2022/10/17 05:37:57;;;;;;;6.43;5.43;;;18.30;99.90;;;;;;5059753;28;20217;-88
2022/10/17 05:40:22;;;;;;;7.97;5.07;;;18.30;99.90;;;;;;5059965;28;20178;-89
2022/10/17 05:42:48;;;;;;;12.70;7.63;;;18.30;99.90;;;;;;5080013;28;20211;-91
2022/10/17 05:45:15;;;;;;;9.80;6.10;;;18.30;99.90;;;;;;5060070;28;20182;-88
2022/10/17 05:47:41;;;;;;;8.17;5.17;;;18.30;99.90;;;;;;5059115;28;20219;-86
2022/10/17 05:50:08;;;;;;;6.33;5.20;;;18.30;99.90;;;;;;5077171;28;20252;-88
2022/10/17 05:52:34;;;;;;;6.80;5.00;;;18.40;99.90;;;;;;5077409;28;20165;-86
2022/10/17 05:54:59;;;;;;;8.47;5.10;;;18.40;99.90;;;;;;5078918;28;20307;-91
2022/10/17 05:57:25;;;;;;;12.40;4.80;;;18.40;99.90;;;;;;5065899;28;20181;-89
2022/10/17 05:59:51;;;;;;;6.87;4.53;;;18.40;99.90;;;;;;5070345;28;20182;-90
2022/10/17 06:02:18;;;;;;;7.40;5.10;;;18.30;99.90;;;;;;5090458;28;20185;-87
2022/10/17 06:04:45;;;;;;;6.43;5.10;;;18.30;99.90;;;;;;5097220;28;20171;-87
2022/10/17 06:07:11;;;;;;;9.90;5.10;;;18.40;99.90;;;;;;5097213;28;20198;-88
2022/10/17 06:09:37;;;;;;;7.80;4.50;;;18.40;99.90;;;;;;5088284;28;20175;-84
2022/10/17 06:12:07;;;;;;;11.43;5.30;;;18.40;99.90;;;;;;5051873;28;20187;-86
2022/10/17 06:14:33;;;;;;;7.50;4.47;;;18.40;99.90;;;;;;5060212;28;20178;-91
2022/10/17 06:17:04;;;;;;;9.80;4.60;;;18.40;99.90;;;;;;5039473;28;20249;-84
2022/10/17 06:19:30;;;;;;;9.30;4.93;;;18.40;99.90;;;;;;5040740;28;20190;-86
2022/10/17 06:21:56;;;;;;;14.83;5.03;;;18.40;99.90;;;;;;5056143;28;20205;-87
2022/10/17 06:24:22;;;;;;;9.13;4.50;;;18.40;99.90;;;;;;5038816;28;20236;-81
2022/10/17 06:26:48;;;;;;;8.30;4.40;;;18.40;99.90;;;;;;5038837;28;20185;-88
2022/10/17 06:29:14;;;;;;;7.90;4.60;;;18.40;99.90;;;;;;5066431;28;20170;-89
2022/10/17 06:31:40;;;;;;;10.13;5.10;;;18.40;99.90;;;;;;5066769;28;20643;-83
2022/10/17 06:34:07;;;;;;;8.57;4.87;;;18.40;99.90;;;;;;5045373;28;20183;-82
2022/10/17 06:36:32;;;;;;;10.30;6.20;;;18.40;99.90;;;;;;5064402;28;20178;-81
2022/10/17 06:39:04;;;;;;;7.77;5.30;;;18.40;99.90;;;;;;5057148;28;20525;-82
2022/10/17 06:41:33;;;;;;;11.27;5.20;;;18.40;99.90;;;;;;5054983;28;20198;-82
2022/10/17 06:43:58;;;;;;;8.37;5.30;;;18.40;99.90;;;;;;5036313;28;20179;-85
2022/10/17 06:46:28;;;;;;;12.57;5.50;;;18.30;99.90;;;;;;5053844;28;20240;-81
2022/10/17 06:48:54;;;;;;;9.03;5.20;;;18.40;99.90;;;;;;5035100;28;20175;-85
2022/10/17 06:51:20;;;;;;;10.00;5.20;;;18.50;99.90;;;;;;5053653;28;20529;-83
2022/10/17 06:53:46;;;;;;;9.07;4.87;;;18.50;99.90;;;;;;5037333;28;20615;-82
2022/10/17 06:56:11;;;;;;;10.67;5.77;;;18.60;99.90;;;;;;5043174;28;20642;-81
2022/10/17 06:58:38;;;;;;;10.53;6.97;;;18.90;99.40;;;;;;5054043;28;20178;-83
2022/10/17 07:01:09;;;;;;;7.47;4.53;;;18.90;98.30;;;;;;5036530;28;20190;-86
2022/10/17 07:03:35;;;;;;;8.60;4.73;;;18.80;97.80;;;;;;5037000;28;20240;-85
2022/10/17 07:06:02;;;;;;;8.17;3.97;;;18.80;97.10;;;;;;5054327;28;20303;-81
2022/10/17 07:08:28;;;;;;;6.57;4.23;;;18.80;94.90;;;;;;5054109;28;20188;-84
2022/10/17 07:10:54;;;;;;;7.23;4.33;;;18.90;94.00;;;;;;5038177;28;20262;-81
2022/10/17 07:13:21;;;;;;;6.07;4.23;;;18.90;94.00;;;;;;5053229;28;20264;-81
2022/10/17 07:15:47;;;;;;;5.60;3.37;;;18.80;94.30;;;;;;5053414;28;20184;-83
2022/10/17 07:18:13;;;;;;;5.40;3.80;;;19.00;91.60;;;;;;5035757;28;20525;-83
2022/10/17 07:20:39;;;;;;;6.50;3.67;;;18.90;92.40;;;;;;5041056;28;20220;-88
2022/10/17 07:23:05;;;;;;;9.00;3.70;;;19.00;93.40;;;;;;5058842;28;20216;-89
2022/10/17 07:25:31;;;;;;;7.60;4.07;;;19.00;94.90;;;;;;5055506;28;20600;-82
2022/10/17 07:27:57;;;;;;;8.60;4.40;;;18.90;98.30;;;;;;5054294;28;20178;-81
2022/10/17 07:30:23;;;;;;;10.73;6.03;;;18.90;98.50;;;;;;5053827;28;20175;-82
2022/10/17 07:32:53;;;;;;;7.97;4.77;;;18.80;99.90;;;;;;5036046;28;20185;-85
2022/10/17 07:35:20;;;;;;;11.00;5.50;;;18.70;99.90;;;;;;5055547;28;20169;-88
2022/10/17 07:37:45;;;;;;;13.60;5.83;;;18.70;99.90;;;;;;5057561;28;20172;-86
2022/10/17 07:40:12;;;;;;;9.53;5.73;;;18.60;99.90;;;;;;5058170;28;20160;-83
2022/10/17 07:42:37;;;;;;;8.13;6.93;;;18.50;99.90;;;;;;5036675;28;20207;-83
2022/10/17 07:45:04;;;;;;;9.57;7.10;;;18.40;99.90;;;;;;5054393;28;20173;-81
2022/10/17 07:47:31;;;;;;;8.23;5.77;;;18.40;99.90;;;;;;5036263;28;20559;-83
2022/10/17 07:49:57;;;;;;;8.50;5.93;;;18.20;99.90;;;;;;5054399;28;20526;-83
2022/10/17 07:52:23;;;;;;;9.33;5.20;;;18.30;99.90;;;;;;5037032;28;20180;-85
2022/10/17 07:54:49;;;;;;;7.20;4.93;;;18.20;99.90;;;;;;5039488;28;20710;-88
2022/10/17 07:57:16;;;;;;;8.03;4.87;;;18.20;99.90;;;;;;5056088;28;20187;-84
2022/10/17 07:59:44;;;;;;;8.30;4.70;;;18.40;99.90;;;;;;5036595;28;20669;-85
2022/10/17 08:02:21;;;;;;;7.97;4.50;;;18.30;99.90;;;;;;5041516;28;20219;-88
2022/10/17 08:04:47;;;;;;;8.97;4.53;;;18.30;99.90;;;;;;5061517;28;20165;-88
2022/10/17 08:07:14;;;;;;;6.80;4.40;;;18.40;99.90;;;;;;5062096;28;20212;-89
2022/10/17 08:09:41;;;;;;;6.07;4.20;;;18.30;99.90;;;;;;5061641;28;20194;-88
2022/10/17 08:12:07;;;;;;;7.63;4.80;;;18.30;99.90;;;;;;5063143;28;20183;-89
2022/10/17 08:14:32;;;;;;;10.10;4.87;;;18.20;99.90;;;;;;5055553;28;20178;-87
2022/10/17 08:16:58;;;;;;;10.67;5.73;;;18.20;99.90;;;;;;5053646;28;20198;-87
2022/10/17 08:19:24;;;;;;;7.77;5.30;;;18.40;99.90;;;;;;5060172;28;20191;-84
2022/10/17 08:21:50;;;;;;;7.53;5.67;;;18.20;99.90;;;;;;5059359;28;20211;-83
2022/10/17 08:24:18;;;;;;;11.13;6.33;;;18.30;99.90;;;;;;5047000;28;20192;-82
2022/10/17 08:26:45;;;;;;;11.17;6.40;;;18.30;99.90;;;;;;5042851;28;20252;-84
2022/10/17 08:29:15;;;;;;;12.13;6.97;;;18.20;99.90;;;;;;5057946;28;20197;-84
2022/10/17 08:31:40;;;;;;;10.87;6.80;;;18.30;99.90;;;;;;5058637;28;20183;-85
2022/10/17 08:34:09;;;;;;;12.37;7.20;;;18.50;99.90;;;;;;5040665;28;20169;-83
2022/10/17 08:36:44;;;;;;;16.37;8.27;;;18.60;99.90;;;;;;5060468;28;20185;-80
2022/10/17 08:39:12;;;;;;;11.20;8.40;;;18.70;99.90;;;;;;5040639;28;20186;-87
2022/10/17 08:41:46;;;;;;;10.87;7.60;;;18.90;99.90;;;;;;5043079;28;20202;-90
2022/10/17 08:44:50;;;;;;;12.20;8.27;;;19.00;99.90;;;;;;5041460;28;20174;-88
2022/10/17 08:47:32;;;;;;;11.30;7.63;;;19.10;99.90;;;;;;5030888;28;20265;-89
2022/10/17 08:50:03;;;;;;;13.53;8.87;;;19.10;99.90;;;;;;5043015;28;20269;-91
2022/10/17 08:52:51;;;;;;;10.73;8.30;;;19.10;99.90;;;;;;5061238;28;20171;-89
2022/10/17 08:55:20;;;;;;;13.20;9.93;;;19.10;99.90;;;;;;5043510;28;20634;-89
2022/10/17 08:57:47;;;;;;;11.83;10.03;;;19.00;99.90;;;;;;5067874;28;20176;-86
2022/10/17 09:00:18;;;;;;;12.43;9.40;;;19.10;99.90;;;;;;5059035;28;20176;-89
2022/10/17 09:03:06;;;;;;;15.60;10.33;;;19.10;99.90;;;;;;5072921;28;20219;-90
2022/10/17 09:05:55;;;;;;;12.70;9.67;;;19.10;99.90;;;;;;5064755;28;20175;-91
2022/10/17 09:08:40;;;;;;;13.03;9.00;;;19.10;99.90;;;;;;5043254;28;20186;-89
2022/10/17 09:11:24;;;;;;;10.87;7.67;;;19.10;99.90;;;;;;5040977;28;20193;-90
2022/10/17 09:14:07;;;;;;;9.53;6.90;;;19.00;99.90;;;;;;5040904;28;20175;-90
2022/10/17 09:16:49;;;;;;;11.17;7.63;;;18.90;99.90;;;;;;5040956;28;20169;-89
2022/10/17 09:19:37;;;;;;;8.90;6.20;;;18.80;99.90;;;;;;5059124;28;20165;-90
2022/10/17 09:22:08;;;;;;;12.47;7.60;;;18.70;99.90;;;;;;5042196;28;20603;-90
2022/10/17 09:24:54;;;;;;;14.10;8.37;;;18.70;99.90;;;;;;5068396;28;20166;-87
2022/10/17 09:27:24;;;;;;;13.80;7.53;;;18.70;99.90;;;;;;5060750;28;20178;-91
2022/10/17 09:30:11;;;;;;;12.40;6.73;;;18.70;99.90;;;;;;5060541;28;20507;-90
2022/10/17 09:32:37;;;;;;;9.53;7.40;;;18.70;99.90;;;;;;5071422;28;20497;-89
2022/10/17 09:35:03;;;;;;;11.27;7.00;;;18.80;99.90;;;;;;5045867;28;20270;-89
2022/10/17 09:37:32;;;;;;;11.77;7.00;;;18.90;99.90;;;;;;5043956;28;20175;-89
2022/10/17 09:39:58;;;;;;;10.03;6.90;;;18.90;99.90;;;;;;5064681;28;20166;-89
2022/10/17 09:42:26;;;;;;;10.23;7.03;;;18.90;99.90;;;;;;5044372;28;20235;-90
2022/10/17 09:45:00;;;;;;;11.27;7.33;;;18.90;99.90;;;;;;5058993;28;20162;-89
2022/10/17 09:47:41;;;;;;;11.83;7.40;;;18.90;99.90;;;;;;5060026;28;20185;-86
2022/10/17 09:50:35;;;;;;;9.53;6.80;;;18.90;99.90;;;;;;5062031;28;20234;-87
2022/10/17 09:53:14;;;;;;;9.77;7.17;;;18.90;99.90;;;;;;5078642;28;20179;-84
2022/10/17 09:55:47;;;;;;;12.47;7.63;;;19.00;99.90;;;;;;5061296;28;20193;-87
2022/10/17 09:58:14;;;;;;;8.73;7.37;;;18.80;99.90;;;;;;5061750;28;20165;-88
2022/10/17 10:00:44;;;;;;;11.87;7.67;;;18.70;99.90;;;;;;5054779;28;20238;-83
2022/10/17 10:03:15;;;;;;;10.93;7.47;;;18.70;99.90;;;;;;5044273;28;20205;-83
2022/10/17 10:09:04;;;;;;;12.83;7.53;;;18.80;99.90;;;;;;5066256;28;20211;-87
2022/10/17 10:14:58;;;;;;;10.23;7.40;;;18.80;99.90;;;;;;5066853;28;20216;-83
2022/10/17 10:17:42;;;;;;;10.03;6.97;;;18.60;99.90;;;;;;5067708;28;20160;-84
2022/10/17 10:20:45;;;;;;;10.13;7.30;;;18.50;99.90;;;;;;5065078;28;20174;-86
2022/10/17 10:23:17;;;;;;;11.47;7.63;;;18.50;99.90;;;;;;4988174;28;20218;-88
2022/10/17 10:25:57;;;;;;;9.63;7.50;;;18.50;99.90;;;;;;5064453;28;20189;-82
2022/10/17 10:28:31;;;;;;;11.50;7.83;;;18.50;99.90;;;;;;5059224;28;20188;-84
2022/10/17 10:31:09;;;;;;;12.97;7.97;;;18.60;99.90;;;;;;5059380;28;20264;-84
2022/10/17 10:33:41;;;;;;;10.93;7.37;;;18.70;99.90;;;;;;5074083;28;20166;-81
2022/10/17 10:36:07;;;;;;;10.80;7.17;;;18.70;99.90;;;;;;5076688;28;20161;-83
2022/10/17 10:38:37;;;;;;;11.70;7.80;;;18.70;99.90;;;;;;5094259;28;20206;-82
2022/10/17 10:41:06;;;;;;;11.30;8.33;;;18.60;99.90;;;;;;5076815;28;20166;-81
2022/10/17 10:43:45;;;;;;;11.67;7.10;;;18.70;99.90;;;;;;5078541;28;20181;-80
2022/10/17 10:46:37;;;;;;;11.33;6.27;;;18.70;99.90;;;;;;5076713;28;20244;-86
2022/10/17 10:49:30;;;;;;;10.97;7.10;;;18.70;99.90;;;;;;5073938;28;20182;-83
2022/10/17 10:52:01;;;;;;;11.23;6.83;;;18.80;99.90;;;;;;5080412;28;20180;-84
2022/10/17 10:54:39;;;;;;;11.93;7.40;;;18.80;99.90;;;;;;5097853;28;20167;-81
2022/10/17 10:57:09;;;;;;;15.93;7.50;;;18.80;99.90;;;;;;5079508;28;20165;-83
2022/10/17 10:59:50;;;;;;;10.17;6.60;;;18.80;99.90;;;;;;5079479;28;20165;-83
2022/10/17 11:02:44;;;;;;;10.97;7.03;;;18.80;99.90;;;;;;5076992;28;20208;-82
2022/10/17 11:05:16;;;;;;;10.20;7.10;;;18.90;99.90;;;;;;5091111;28;20170;-90
2022/10/17 11:08:10;;;;;;;14.13;7.73;;;18.80;99.90;;;;;;5067319;28;20184;-84
2022/10/17 11:11:25;;;;;;;11.17;6.70;;;18.80;99.90;;;;;;5065592;28;20170;-83
2022/10/17 11:14:11;;;;;;;11.07;7.17;;;18.90;99.90;;;;;;4969310;28;20201;-82
2022/10/17 11:17:32;;;;;;;10.87;6.70;;;18.80;99.90;;;;;;4986372;28;20192;-84
2022/10/17 11:20:14;;;;;;;11.97;7.50;;;18.80;99.90;;;;;;4966178;29;20189;-86
2022/10/17 11:22:52;;;;;;;10.73;7.33;;;19.00;99.90;;;;;;4977990;28;20680;-88
2022/10/17 11:25:39;;;;;;;12.77;7.20;;;18.90;99.90;;;;;;5065617;28;20178;-85
2022/10/17 11:28:39;;;;;;;8.80;7.20;;;19.00;99.90;;;;;;5062962;28;20256;-86
2022/10/17 11:31:19;;;;;;;12.17;7.87;;;19.10;99.90;;;;;;5063420;28;20621;-84
2022/10/17 11:33:59;;;;;;;9.37;7.60;;;19.00;99.90;;;;;;5079018;28;20157;-89
2022/10/17 11:36:53;;;;;;;14.03;7.87;;;19.10;99.90;;;;;;5063211;28;20179;-85
2022/10/17 11:39:38;;;;;;;12.07;7.40;;;19.10;99.90;;;;;;5069912;28;20198;-89
2022/10/17 11:42:20;;;;;;;11.30;7.00;;;18.90;99.90;;;;;;5074605;28;20212;-86
2022/10/17 11:45:05;;;;;;;10.17;7.13;;;18.80;99.90;;;;;;5069664;28;20189;-87
2022/10/17 11:47:37;;;;;;;15.37;7.67;;;18.70;99.90;;;;;;5091593;28;20235;-89
2022/10/17 11:50:18;;;;;;;14.93;7.73;;;18.70;99.90;;;;;;5084470;28;20218;-88
2022/10/17 11:52:56;;;;;;;14.10;7.60;;;18.80;99.90;;;;;;5082538;28;20155;-90
2022/10/17 11:55:30;;;;;;;13.97;7.77;;;18.80;99.90;;;;;;5072542;28;20157;-87
2022/10/17 11:58:14;;;;;;;9.83;7.73;;;18.90;99.90;;;;;;5078114;28;20158;-91
2022/10/17 12:00:51;;;;;;;9.83;8.07;;;19.00;99.90;;;;;;5052177;28;20199;-88
2022/10/17 12:03:41;;;;;;;10.00;8.13;;;19.00;99.90;;;;;;5056160;28;20205;-86
2022/10/17 12:06:26;;;;;;;11.30;8.27;;;19.00;99.90;;;;;;5064789;28;20226;-88
2022/10/17 12:08:55;;;;;;;10.67;7.97;;;19.10;99.90;;;;;;5060366;28;20173;-87
2022/10/17 12:11:52;;;;;;;8.77;7.10;;;19.10;99.90;;;;;;5058101;28;20242;-88
2022/10/17 12:14:39;;;;;;;11.73;7.37;;;19.00;99.90;;;;;;5039062;28;20178;-87
2022/10/17 12:17:31;;;;;;;12.87;7.83;;;18.90;99.90;;;;;;5039752;28;20207;-88
2022/10/17 12:20:19;;;;;;;11.80;7.03;;;19.10;99.90;;;;;;5039615;28;20335;-89
2022/10/17 12:22:53;;;;;;;12.17;7.27;;;19.10;99.90;;;;;;5036723;28;20216;-87
2022/10/17 12:25:28;;;;;;;8.73;6.73;;;19.10;99.90;;;;;;5056601;28;20174;-88
2022/10/17 12:28:17;;;;;;;11.93;7.70;;;19.10;99.90;;;;;;5040604;28;20178;-87
2022/10/17 12:30:58;;;;;;;11.27;8.07;;;19.20;99.90;;;;;;5038566;28;20170;-87
2022/10/17 12:33:34;;;;;;;11.20;7.60;;;19.20;99.90;;;;;;5054840;28;20174;-88
2022/10/17 12:36:20;;;;;;;8.70;7.37;;;19.10;99.90;;;;;;5055596;28;20228;-88
2022/10/17 12:39:13;;;;;;;10.07;7.60;;;19.20;99.90;;;;;;5038227;28;20189;-86
2022/10/17 12:41:41;;;;;;;10.23;7.47;;;19.20;99.90;;;;;;5014192;28;20231;-88
2022/10/17 12:44:12;;;;;;;9.93;7.93;;;19.20;99.90;;;;;;5056030;28;20240;-88
2022/10/17 12:46:50;;;;;;;9.90;8.10;;;19.20;99.90;;;;;;5040161;28;20186;-89
2022/10/17 12:49:36;;;;;;;10.23;8.13;;;19.10;99.90;;;;;;5062787;28;20198;-91
2022/10/17 12:52:14;;;;;;;10.80;8.50;;;19.20;99.90;;;;;;5074385;28;20212;-84
2022/10/17 12:54:43;;;;;;;10.20;7.70;;;19.10;99.90;;;;;;5072271;28;20162;-81
2022/10/17 12:57:29;;;;;;;11.13;7.73;;;19.20;99.90;;;;;;5049808;28;20257;-87
2022/10/17 13:00:35;;;;;;;13.53;7.90;;;19.10;99.90;;;;;;5055887;28;20173;-86
2022/10/17 13:03:25;;;;;;;8.23;6.90;;;19.20;99.90;;;;;;5056520;28;20408;-89
2022/10/17 13:05:59;;;;;;;8.70;7.00;;;19.20;99.90;;;;;;5035081;28;20190;-86
2022/10/17 13:08:31;;;;;;;11.77;6.93;;;19.30;99.90;;;;;;5056311;28;20177;-87
2022/10/17 13:10:57;;;;;;;8.20;7.07;;;19.30;99.90;;;;;;5038243;28;20223;-88
2022/10/17 13:13:41;;;;;;;9.53;6.27;;;19.30;99.90;;;;;;5037935;28;20591;-88
2022/10/17 13:16:33;;;;;;;9.97;6.67;;;19.50;99.90;;;;;;5054920;28;20186;-88
2022/10/17 13:19:01;;;;;;;9.87;6.50;;;19.50;99.90;;;;;;5038267;28;20248;-83
2022/10/17 13:21:27;;;;;;;9.83;6.10;;;19.60;99.90;;;;;;5040477;28;20176;-91
2022/10/17 13:23:53;;;;;;;7.93;5.97;;;19.50;99.90;;;;;;5055586;28;20258;-90
2022/10/17 13:26:25;;;;;;;7.17;5.73;;;19.50;99.90;;;;;;5036912;28;20186;-87